sensor_id;sensor_type;location;lat;lon;timestamp;P1;durP1;ratioP1;P2;durP2;ratioP2
19137;SDS011;68178;52.188;5.598;2023-04-07T00:01:05;102.57;;;39.78;;
19137;SDS011;68178;52.188;5.598;2023-04-07T00:03:31;95.85;;;38.30;;
19137;SDS011;68178;52.188;5.598;2023-04-07T00:05:57;94.13;;;37.30;;
19137;SDS011;68178;52.188;5.598;2023-04-07T00:08:23;86.70;;;35.63;;
19137;SDS011;68178;52.188;5.598;2023-04-07T00:10:48;90.97;;;33.80;;
19137;SDS011;68178;52.188;5.598;2023-04-07T00:13:14;79.05;;;33.88;;
19137;SDS011;68178;52.188;5.598;2023-04-07T00:15:40;66.07;;;30.77;;
19137;SDS011;68178;52.188;5.598;2023-04-07T00:18:05;67.07;;;28.95;;
19137;SDS011;68178;52.188;5.598;2023-04-07T00:20:31;55.13;;;25.10;;
19137;SDS011;68178;52.188;5.598;2023-04-07T00:22:56;47.35;;;21.08;;
19137;SDS011;68178;52.188;5.598;2023-04-07T00:25:22;47.13;;;21.40;;
19137;SDS011;68178;52.188;5.598;2023-04-07T00:27:47;38.85;;;18.48;;
19137;SDS011;68178;52.188;5.598;2023-04-07T00:30:13;38.35;;;18.67;;
19137;SDS011;68178;52.188;5.598;2023-04-07T00:32:39;38.90;;;19.25;;
19137;SDS011;68178;52.188;5.598;2023-04-07T00:35:08;38.35;;;17.83;;
19137;SDS011;68178;52.188;5.598;2023-04-07T00:37:33;42.92;;;19.02;;
19137;SDS011;68178;52.188;5.598;2023-04-07T00:39:59;36.15;;;18.05;;
19137;SDS011;68178;52.188;5.598;2023-04-07T00:42:25;37.42;;;17.17;;
19137;SDS011;68178;52.188;5.598;2023-04-07T00:44:50;34.35;;;16.15;;
19137;SDS011;68178;52.188;5.598;2023-04-07T00:47:16;42.17;;;19.05;;
19137;SDS011;68178;52.188;5.598;2023-04-07T00:49:41;42.13;;;20.27;;
19137;SDS011;68178;52.188;5.598;2023-04-07T00:52:07;48.10;;;20.60;;
19137;SDS011;68178;52.188;5.598;2023-04-07T00:54:35;44.42;;;21.48;;
19137;SDS011;68178;52.188;5.598;2023-04-07T00:57:01;47.33;;;20.50;;
19137;SDS011;68178;52.188;5.598;2023-04-07T00:59:27;43.58;;;21.48;;
19137;SDS011;68178;52.188;5.598;2023-04-07T01:07:21;43.72;;;19.17;;
19137;SDS011;68178;52.188;5.598;2023-04-07T01:10:27;43.28;;;19.45;;
19137;SDS011;68178;52.188;5.598;2023-04-07T01:15:30;31.80;;;16.65;;
19137;SDS011;68178;52.188;5.598;2023-04-07T01:20:59;32.28;;;17.17;;
19137;SDS011;68178;52.188;5.598;2023-04-07T01:23:36;35.67;;;17.85;;
19137;SDS011;68178;52.188;5.598;2023-04-07T01:26:16;33.90;;;17.73;;
19137;SDS011;68178;52.188;5.598;2023-04-07T01:28:55;50.53;;;22.20;;
19137;SDS011;68178;52.188;5.598;2023-04-07T01:31:40;71.65;;;27.63;;
19137;SDS011;68178;52.188;5.598;2023-04-07T01:34:09;80.28;;;30.88;;
19137;SDS011;68178;52.188;5.598;2023-04-07T01:36:36;86.85;;;31.88;;
19137;SDS011;68178;52.188;5.598;2023-04-07T01:39:02;91.65;;;33.20;;
19137;SDS011;68178;52.188;5.598;2023-04-07T01:41:28;91.00;;;35.17;;
19137;SDS011;68178;52.188;5.598;2023-04-07T01:43:55;100.35;;;35.75;;
19137;SDS011;68178;52.188;5.598;2023-04-07T01:46:21;93.72;;;35.42;;
19137;SDS011;68178;52.188;5.598;2023-04-07T01:48:47;88.05;;;34.25;;
19137;SDS011;68178;52.188;5.598;2023-04-07T01:51:13;93.53;;;34.15;;
19137;SDS011;68178;52.188;5.598;2023-04-07T01:53:42;85.28;;;31.80;;
19137;SDS011;68178;52.188;5.598;2023-04-07T01:56:10;94.70;;;33.17;;
19137;SDS011;68178;52.188;5.598;2023-04-07T01:58:35;79.40;;;32.85;;
19137;SDS011;68178;52.188;5.598;2023-04-07T02:01:01;90.45;;;32.38;;
19137;SDS011;68178;52.188;5.598;2023-04-07T02:03:28;85.03;;;32.00;;
19137;SDS011;68178;52.188;5.598;2023-04-07T02:06:02;79.55;;;31.27;;
19137;SDS011;68178;52.188;5.598;2023-04-07T02:08:32;75.65;;;29.95;;
19137;SDS011;68178;52.188;5.598;2023-04-07T02:11:00;76.10;;;28.50;;
19137;SDS011;68178;52.188;5.598;2023-04-07T02:13:27;61.13;;;25.67;;
19137;SDS011;68178;52.188;5.598;2023-04-07T02:15:54;68.15;;;27.27;;
19137;SDS011;68178;52.188;5.598;2023-04-07T02:18:22;57.38;;;25.27;;
19137;SDS011;68178;52.188;5.598;2023-04-07T02:20:49;50.63;;;22.95;;
19137;SDS011;68178;52.188;5.598;2023-04-07T02:23:16;49.90;;;22.23;;
19137;SDS011;68178;52.188;5.598;2023-04-07T02:25:42;48.40;;;20.52;;
19137;SDS011;68178;52.188;5.598;2023-04-07T02:28:08;48.80;;;19.63;;
19137;SDS011;68178;52.188;5.598;2023-04-07T02:30:33;42.05;;;17.25;;
19137;SDS011;68178;52.188;5.598;2023-04-07T02:32:59;38.90;;;16.63;;
19137;SDS011;68178;52.188;5.598;2023-04-07T02:35:25;37.78;;;16.73;;
19137;SDS011;68178;52.188;5.598;2023-04-07T02:37:50;47.90;;;16.02;;
19137;SDS011;68178;52.188;5.598;2023-04-07T02:40:19;31.83;;;15.05;;
19137;SDS011;68178;52.188;5.598;2023-04-07T02:42:45;40.05;;;15.23;;
19137;SDS011;68178;52.188;5.598;2023-04-07T02:45:10;41.83;;;15.90;;
19137;SDS011;68178;52.188;5.598;2023-04-07T02:47:36;36.63;;;13.98;;
19137;SDS011;68178;52.188;5.598;2023-04-07T02:50:03;36.60;;;14.95;;
19137;SDS011;68178;52.188;5.598;2023-04-07T02:52:29;38.83;;;15.48;;
19137;SDS011;68178;52.188;5.598;2023-04-07T02:54:54;35.38;;;15.18;;
19137;SDS011;68178;52.188;5.598;2023-04-07T02:57:20;37.75;;;15.98;;
19137;SDS011;68178;52.188;5.598;2023-04-07T02:59:46;33.45;;;15.60;;
19137;SDS011;68178;52.188;5.598;2023-04-07T03:02:11;39.80;;;15.95;;
19137;SDS011;68178;52.188;5.598;2023-04-07T03:04:37;38.13;;;16.70;;
19137;SDS011;68178;52.188;5.598;2023-04-07T03:07:03;37.42;;;16.30;;
19137;SDS011;68178;52.188;5.598;2023-04-07T03:09:28;36.22;;;17.33;;
19137;SDS011;68178;52.188;5.598;2023-04-07T03:11:54;35.72;;;16.38;;
19137;SDS011;68178;52.188;5.598;2023-04-07T03:14:20;37.40;;;17.20;;
19137;SDS011;68178;52.188;5.598;2023-04-07T03:16:46;43.53;;;17.73;;
19137;SDS011;68178;52.188;5.598;2023-04-07T03:19:11;32.33;;;15.82;;
19137;SDS011;68178;52.188;5.598;2023-04-07T03:21:37;39.22;;;16.75;;
19137;SDS011;68178;52.188;5.598;2023-04-07T03:24:03;33.22;;;16.90;;
19137;SDS011;68178;52.188;5.598;2023-04-07T03:26:30;39.38;;;16.42;;
19137;SDS011;68178;52.188;5.598;2023-04-07T03:28:55;36.13;;;16.58;;
19137;SDS011;68178;52.188;5.598;2023-04-07T03:31:24;38.42;;;16.67;;
19137;SDS011;68178;52.188;5.598;2023-04-07T03:33:50;41.72;;;16.80;;
19137;SDS011;68178;52.188;5.598;2023-04-07T03:36:15;34.28;;;14.73;;
19137;SDS011;68178;52.188;5.598;2023-04-07T03:38:45;34.55;;;17.13;;
19137;SDS011;68178;52.188;5.598;2023-04-07T03:41:11;37.85;;;15.90;;
19137;SDS011;68178;52.188;5.598;2023-04-07T03:43:37;34.72;;;16.40;;
19137;SDS011;68178;52.188;5.598;2023-04-07T03:46:02;33.78;;;15.05;;
19137;SDS011;68178;52.188;5.598;2023-04-07T03:48:28;37.25;;;16.27;;
19137;SDS011;68178;52.188;5.598;2023-04-07T03:50:53;34.40;;;15.05;;
19137;SDS011;68178;52.188;5.598;2023-04-07T03:53:19;36.75;;;15.90;;
19137;SDS011;68178;52.188;5.598;2023-04-07T03:55:44;38.58;;;15.45;;
19137;SDS011;68178;52.188;5.598;2023-04-07T03:58:11;29.77;;;14.38;;
19137;SDS011;68178;52.188;5.598;2023-04-07T04:00:36;38.22;;;15.35;;
19137;SDS011;68178;52.188;5.598;2023-04-07T04:03:02;33.85;;;14.98;;
19137;SDS011;68178;52.188;5.598;2023-04-07T04:05:28;37.08;;;13.98;;
19137;SDS011;68178;52.188;5.598;2023-04-07T04:07:53;27.02;;;12.70;;
19137;SDS011;68178;52.188;5.598;2023-04-07T04:10:19;25.02;;;11.65;;
19137;SDS011;68178;52.188;5.598;2023-04-07T04:12:48;24.10;;;12.25;;
19137;SDS011;68178;52.188;5.598;2023-04-07T04:15:14;29.08;;;13.68;;
19137;SDS011;68178;52.188;5.598;2023-04-07T04:17:40;28.88;;;13.27;;
19137;SDS011;68178;52.188;5.598;2023-04-07T04:20:06;25.35;;;12.75;;
19137;SDS011;68178;52.188;5.598;2023-04-07T04:22:33;25.30;;;11.82;;
19137;SDS011;68178;52.188;5.598;2023-04-07T04:24:59;29.15;;;12.90;;
19137;SDS011;68178;52.188;5.598;2023-04-07T04:27:25;23.52;;;11.88;;
19137;SDS011;68178;52.188;5.598;2023-04-07T04:29:51;21.13;;;11.75;;
19137;SDS011;68178;52.188;5.598;2023-04-07T04:32:17;23.92;;;12.20;;
19137;SDS011;68178;52.188;5.598;2023-04-07T04:34:43;23.42;;;12.93;;
19137;SDS011;68178;52.188;5.598;2023-04-07T04:37:09;26.60;;;12.55;;
19137;SDS011;68178;52.188;5.598;2023-04-07T04:39:34;23.50;;;12.90;;
19137;SDS011;68178;52.188;5.598;2023-04-07T04:42:00;26.55;;;12.88;;
19137;SDS011;68178;52.188;5.598;2023-04-07T04:44:26;30.27;;;13.50;;
19137;SDS011;68178;52.188;5.598;2023-04-07T04:46:51;25.17;;;12.55;;
19137;SDS011;68178;52.188;5.598;2023-04-07T04:49:17;32.53;;;14.43;;
19137;SDS011;68178;52.188;5.598;2023-04-07T04:51:43;26.55;;;12.55;;
19137;SDS011;68178;52.188;5.598;2023-04-07T04:54:09;26.48;;;13.85;;
19137;SDS011;68178;52.188;5.598;2023-04-07T04:56:34;28.95;;;15.52;;
19137;SDS011;68178;52.188;5.598;2023-04-07T04:59:01;30.52;;;15.77;;
19137;SDS011;68178;52.188;5.598;2023-04-07T05:01:29;37.58;;;16.13;;
19137;SDS011;68178;52.188;5.598;2023-04-07T05:03:55;30.65;;;16.05;;
19137;SDS011;68178;52.188;5.598;2023-04-07T05:06:21;34.50;;;18.00;;
19137;SDS011;68178;52.188;5.598;2023-04-07T05:08:46;29.75;;;16.52;;
19137;SDS011;68178;52.188;5.598;2023-04-07T05:11:12;35.88;;;17.48;;
19137;SDS011;68178;52.188;5.598;2023-04-07T05:13:37;33.05;;;15.50;;
19137;SDS011;68178;52.188;5.598;2023-04-07T05:16:03;35.50;;;16.63;;
19137;SDS011;68178;52.188;5.598;2023-04-07T05:18:29;30.70;;;14.20;;
19137;SDS011;68178;52.188;5.598;2023-04-07T05:20:55;33.78;;;15.32;;
19137;SDS011;68178;52.188;5.598;2023-04-07T05:23:21;35.35;;;15.13;;
19137;SDS011;68178;52.188;5.598;2023-04-07T05:25:46;32.13;;;15.52;;
19137;SDS011;68178;52.188;5.598;2023-04-07T05:28:12;34.47;;;14.80;;
19137;SDS011;68178;52.188;5.598;2023-04-07T05:30:37;29.98;;;13.23;;
19137;SDS011;68178;52.188;5.598;2023-04-07T05:33:03;24.52;;;13.73;;
19137;SDS011;68178;52.188;5.598;2023-04-07T05:35:28;25.70;;;13.63;;
19137;SDS011;68178;52.188;5.598;2023-04-07T05:37:54;30.45;;;13.32;;
19137;SDS011;68178;52.188;5.598;2023-04-07T05:40:20;29.80;;;12.75;;
19137;SDS011;68178;52.188;5.598;2023-04-07T05:42:45;25.10;;;12.88;;
19137;SDS011;68178;52.188;5.598;2023-04-07T05:45:11;24.42;;;12.68;;
19137;SDS011;68178;52.188;5.598;2023-04-07T05:47:36;24.42;;;12.18;;
19137;SDS011;68178;52.188;5.598;2023-04-07T05:50:02;27.92;;;12.93;;
19137;SDS011;68178;52.188;5.598;2023-04-07T05:52:28;30.50;;;12.98;;
19137;SDS011;68178;52.188;5.598;2023-04-07T05:54:53;28.88;;;13.05;;
19137;SDS011;68178;52.188;5.598;2023-04-07T05:57:19;25.23;;;12.02;;
19137;SDS011;68178;52.188;5.598;2023-04-07T05:59:45;25.33;;;12.73;;
19137;SDS011;68178;52.188;5.598;2023-04-07T06:02:11;27.05;;;12.10;;
19137;SDS011;68178;52.188;5.598;2023-04-07T06:04:37;24.70;;;11.43;;
19137;SDS011;68178;52.188;5.598;2023-04-07T06:07:03;22.30;;;11.02;;
19137;SDS011;68178;52.188;5.598;2023-04-07T06:09:29;21.48;;;11.45;;
19137;SDS011;68178;52.188;5.598;2023-04-07T06:11:55;23.52;;;10.95;;
19137;SDS011;68178;52.188;5.598;2023-04-07T06:14:20;30.88;;;12.07;;
19137;SDS011;68178;52.188;5.598;2023-04-07T06:16:46;20.65;;;11.20;;
19137;SDS011;68178;52.188;5.598;2023-04-07T06:19:11;19.80;;;11.00;;
19137;SDS011;68178;52.188;5.598;2023-04-07T06:21:37;26.05;;;11.48;;
19137;SDS011;68178;52.188;5.598;2023-04-07T06:24:03;22.52;;;12.00;;
19137;SDS011;68178;52.188;5.598;2023-04-07T06:26:31;22.45;;;11.65;;
19137;SDS011;68178;52.188;5.598;2023-04-07T06:28:57;21.92;;;11.40;;
19137;SDS011;68178;52.188;5.598;2023-04-07T06:31:23;19.90;;;10.95;;
19137;SDS011;68178;52.188;5.598;2023-04-07T06:33:49;22.27;;;12.20;;
19137;SDS011;68178;52.188;5.598;2023-04-07T06:36:14;20.77;;;12.25;;
19137;SDS011;68178;52.188;5.598;2023-04-07T06:38:40;22.05;;;12.43;;
19137;SDS011;68178;52.188;5.598;2023-04-07T06:41:06;20.75;;;12.55;;
19137;SDS011;68178;52.188;5.598;2023-04-07T06:43:35;22.75;;;12.18;;
19137;SDS011;68178;52.188;5.598;2023-04-07T06:46:01;25.13;;;13.02;;
19137;SDS011;68178;52.188;5.598;2023-04-07T06:48:26;20.00;;;12.30;;
19137;SDS011;68178;52.188;5.598;2023-04-07T06:50:52;25.40;;;13.40;;
19137;SDS011;68178;52.188;5.598;2023-04-07T06:53:17;22.23;;;12.68;;
19137;SDS011;68178;52.188;5.598;2023-04-07T06:55:43;23.83;;;12.13;;
19137;SDS011;68178;52.188;5.598;2023-04-07T06:58:08;22.52;;;11.77;;
19137;SDS011;68178;52.188;5.598;2023-04-07T07:00:34;24.27;;;11.27;;
19137;SDS011;68178;52.188;5.598;2023-04-07T07:03:00;19.60;;;10.50;;
19137;SDS011;68178;52.188;5.598;2023-04-07T07:05:26;31.95;;;11.85;;
19137;SDS011;68178;52.188;5.598;2023-04-07T07:07:52;22.58;;;11.27;;
19137;SDS011;68178;52.188;5.598;2023-04-07T07:10:18;23.20;;;11.18;;
19137;SDS011;68178;52.188;5.598;2023-04-07T07:12:47;26.05;;;11.80;;
19137;SDS011;68178;52.188;5.598;2023-04-07T07:15:13;19.65;;;10.68;;
19137;SDS011;68178;52.188;5.598;2023-04-07T07:17:39;24.00;;;11.55;;
19137;SDS011;68178;52.188;5.598;2023-04-07T07:20:05;17.00;;;9.85;;
19137;SDS011;68178;52.188;5.598;2023-04-07T07:22:31;19.42;;;10.05;;
19137;SDS011;68178;52.188;5.598;2023-04-07T07:24:56;18.58;;;10.85;;
19137;SDS011;68178;52.188;5.598;2023-04-07T07:27:22;19.55;;;10.23;;
19137;SDS011;68178;52.188;5.598;2023-04-07T07:29:47;24.98;;;10.30;;
19137;SDS011;68178;52.188;5.598;2023-04-07T07:32:13;22.23;;;9.68;;
19137;SDS011;68178;52.188;5.598;2023-04-07T07:34:38;27.33;;;11.38;;
19137;SDS011;68178;52.188;5.598;2023-04-07T07:37:04;22.02;;;10.52;;
19137;SDS011;68178;52.188;5.598;2023-04-07T07:39:29;17.08;;;10.07;;
19137;SDS011;68178;52.188;5.598;2023-04-07T07:41:55;13.73;;;8.32;;
19137;SDS011;68178;52.188;5.598;2023-04-07T07:44:21;15.18;;;8.23;;
19137;SDS011;68178;52.188;5.598;2023-04-07T07:46:49;14.65;;;8.77;;
19137;SDS011;68178;52.188;5.598;2023-04-07T07:49:15;19.63;;;8.30;;
19137;SDS011;68178;52.188;5.598;2023-04-07T07:51:41;19.08;;;8.48;;
19137;SDS011;68178;52.188;5.598;2023-04-07T07:54:06;18.58;;;8.23;;
19137;SDS011;68178;52.188;5.598;2023-04-07T07:56:36;17.25;;;7.90;;
19137;SDS011;68178;52.188;5.598;2023-04-07T07:59:02;15.07;;;8.52;;
19137;SDS011;68178;52.188;5.598;2023-04-07T08:01:30;14.30;;;8.85;;
19137;SDS011;68178;52.188;5.598;2023-04-07T08:03:58;20.45;;;8.07;;
19137;SDS011;68178;52.188;5.598;2023-04-07T08:06:24;15.82;;;7.68;;
19137;SDS011;68178;52.188;5.598;2023-04-07T08:08:51;18.23;;;8.10;;
19137;SDS011;68178;52.188;5.598;2023-04-07T08:11:16;16.45;;;7.97;;
19137;SDS011;68178;52.188;5.598;2023-04-07T08:13:45;15.55;;;7.43;;
19137;SDS011;68178;52.188;5.598;2023-04-07T08:16:10;17.45;;;7.25;;
19137;SDS011;68178;52.188;5.598;2023-04-07T08:18:38;18.88;;;7.63;;
19137;SDS011;68178;52.188;5.598;2023-04-07T08:21:04;16.13;;;8.45;;
19137;SDS011;68178;52.188;5.598;2023-04-07T08:23:30;18.40;;;8.00;;
19137;SDS011;68178;52.188;5.598;2023-04-07T08:25:56;16.70;;;8.13;;
19137;SDS011;68178;52.188;5.598;2023-04-07T08:28:23;15.25;;;8.20;;
19137;SDS011;68178;52.188;5.598;2023-04-07T08:30:49;23.55;;;8.23;;
19137;SDS011;68178;52.188;5.598;2023-04-07T08:33:15;14.63;;;6.85;;
19137;SDS011;68178;52.188;5.598;2023-04-07T08:35:40;18.63;;;8.00;;
19137;SDS011;68178;52.188;5.598;2023-04-07T08:38:06;20.17;;;6.72;;
19137;SDS011;68178;52.188;5.598;2023-04-07T08:40:33;13.18;;;5.40;;
19137;SDS011;68178;52.188;5.598;2023-04-07T08:42:59;12.32;;;5.53;;
19137;SDS011;68178;52.188;5.598;2023-04-07T08:45:29;12.13;;;5.22;;
19137;SDS011;68178;52.188;5.598;2023-04-07T08:47:56;16.80;;;5.60;;
19137;SDS011;68178;52.188;5.598;2023-04-07T08:50:27;11.50;;;5.25;;
19137;SDS011;68178;52.188;5.598;2023-04-07T08:52:53;12.48;;;5.50;;
19137;SDS011;68178;52.188;5.598;2023-04-07T08:55:20;12.23;;;5.10;;
19137;SDS011;68178;52.188;5.598;2023-04-07T08:57:46;10.90;;;4.93;;
19137;SDS011;68178;52.188;5.598;2023-04-07T09:00:13;13.65;;;5.28;;
19137;SDS011;68178;52.188;5.598;2023-04-07T09:02:39;13.98;;;5.78;;
19137;SDS011;68178;52.188;5.598;2023-04-07T09:05:11;12.20;;;4.65;;
19137;SDS011;68178;52.188;5.598;2023-04-07T09:07:40;9.95;;;4.50;;
19137;SDS011;68178;52.188;5.598;2023-04-07T09:10:07;10.00;;;4.55;;
19137;SDS011;68178;52.188;5.598;2023-04-07T09:12:33;15.93;;;5.00;;
19137;SDS011;68178;52.188;5.598;2023-04-07T09:15:00;11.07;;;5.00;;
19137;SDS011;68178;52.188;5.598;2023-04-07T09:17:26;11.77;;;6.25;;
19137;SDS011;68178;52.188;5.598;2023-04-07T09:19:58;7.82;;;4.65;;
19137;SDS011;68178;52.188;5.598;2023-04-07T09:22:38;12.68;;;4.43;;
19137;SDS011;68178;52.188;5.598;2023-04-07T09:25:42;12.73;;;5.05;;
19137;SDS011;68178;52.188;5.598;2023-04-07T09:30:25;8.98;;;4.35;;
19137;SDS011;68178;52.188;5.598;2023-04-07T09:32:52;12.07;;;4.93;;
19137;SDS011;68178;52.188;5.598;2023-04-07T09:35:17;9.15;;;4.78;;
19137;SDS011;68178;52.188;5.598;2023-04-07T09:37:43;8.65;;;4.82;;
19137;SDS011;68178;52.188;5.598;2023-04-07T09:40:09;12.02;;;5.68;;
19137;SDS011;68178;52.188;5.598;2023-04-07T09:42:43;16.38;;;6.03;;
19137;SDS011;68178;52.188;5.598;2023-04-07T09:45:09;8.68;;;5.85;;
19137;SDS011;68178;52.188;5.598;2023-04-07T09:47:36;9.65;;;5.07;;
19137;SDS011;68178;52.188;5.598;2023-04-07T09:50:02;12.75;;;5.40;;
19137;SDS011;68178;52.188;5.598;2023-04-07T09:52:49;13.43;;;5.40;;
19137;SDS011;68178;52.188;5.598;2023-04-07T09:55:16;7.45;;;5.20;;
19137;SDS011;68178;52.188;5.598;2023-04-07T09:57:50;11.05;;;5.97;;
19137;SDS011;68178;52.188;5.598;2023-04-07T10:00:16;13.30;;;5.75;;
19137;SDS011;68178;52.188;5.598;2023-04-07T10:02:43;11.82;;;5.88;;
19137;SDS011;68178;52.188;5.598;2023-04-07T10:05:09;12.32;;;5.32;;
19137;SDS011;68178;52.188;5.598;2023-04-07T10:07:35;17.88;;;6.60;;
19137;SDS011;68178;52.188;5.598;2023-04-07T10:10:04;16.80;;;5.85;;
19137;SDS011;68178;52.188;5.598;2023-04-07T10:12:33;12.02;;;5.90;;
19137;SDS011;68178;52.188;5.598;2023-04-07T10:14:59;13.45;;;6.18;;
19137;SDS011;68178;52.188;5.598;2023-04-07T10:17:28;9.48;;;6.28;;
19137;SDS011;68178;52.188;5.598;2023-04-07T10:19:55;7.10;;;5.50;;
19137;SDS011;68178;52.188;5.598;2023-04-07T10:22:22;12.07;;;5.40;;
19137;SDS011;68178;52.188;5.598;2023-04-07T10:25:09;12.77;;;6.63;;
19137;SDS011;68178;52.188;5.598;2023-04-07T10:27:38;11.85;;;6.18;;
19137;SDS011;68178;52.188;5.598;2023-04-07T10:30:19;13.02;;;6.20;;
19137;SDS011;68178;52.188;5.598;2023-04-07T10:32:48;9.95;;;6.03;;
19137;SDS011;68178;52.188;5.598;2023-04-07T10:35:14;8.98;;;5.45;;
19137;SDS011;68178;52.188;5.598;2023-04-07T10:37:42;8.93;;;5.75;;
19137;SDS011;68178;52.188;5.598;2023-04-07T10:40:34;8.48;;;5.10;;
19137;SDS011;68178;52.188;5.598;2023-04-07T10:43:01;14.05;;;5.50;;
19137;SDS011;68178;52.188;5.598;2023-04-07T10:48:18;12.27;;;5.63;;
19137;SDS011;68178;52.188;5.598;2023-04-07T10:50:45;8.98;;;4.82;;
19137;SDS011;68178;52.188;5.598;2023-04-07T10:53:31;13.32;;;4.32;;
19137;SDS011;68178;52.188;5.598;2023-04-07T10:56:00;9.80;;;4.57;;
19137;SDS011;68178;52.188;5.598;2023-04-07T10:58:28;9.20;;;4.47;;
19137;SDS011;68178;52.188;5.598;2023-04-07T11:03:51;10.60;;;4.53;;
19137;SDS011;68178;52.188;5.598;2023-04-07T11:06:18;7.53;;;4.03;;
19137;SDS011;68178;52.188;5.598;2023-04-07T11:08:51;11.75;;;4.05;;
19137;SDS011;68178;52.188;5.598;2023-04-07T11:14:03;5.55;;;4.07;;
19137;SDS011;68178;52.188;5.598;2023-04-07T11:16:35;8.35;;;3.47;;
19137;SDS011;68178;52.188;5.598;2023-04-07T11:19:03;9.18;;;3.95;;
19137;SDS011;68178;52.188;5.598;2023-04-07T11:21:28;8.15;;;3.90;;
19137;SDS011;68178;52.188;5.598;2023-04-07T11:23:54;9.40;;;4.35;;
19137;SDS011;68178;52.188;5.598;2023-04-07T11:26:20;6.78;;;3.90;;
19137;SDS011;68178;52.188;5.598;2023-04-07T11:28:52;7.97;;;4.25;;
19137;SDS011;68178;52.188;5.598;2023-04-07T11:31:26;6.90;;;4.20;;
19137;SDS011;68178;52.188;5.598;2023-04-07T11:33:57;9.35;;;4.68;;
19137;SDS011;68178;52.188;5.598;2023-04-07T11:36:26;10.35;;;3.63;;
19137;SDS011;68178;52.188;5.598;2023-04-07T11:38:52;10.07;;;4.15;;
19137;SDS011;68178;52.188;5.598;2023-04-07T11:41:19;7.25;;;3.78;;
19137;SDS011;68178;52.188;5.598;2023-04-07T11:43:45;7.50;;;3.08;;
19137;SDS011;68178;52.188;5.598;2023-04-07T11:46:14;10.00;;;3.70;;
19137;SDS011;68178;52.188;5.598;2023-04-07T11:48:41;9.07;;;3.65;;
19137;SDS011;68178;52.188;5.598;2023-04-07T11:51:15;10.10;;;3.65;;
19137;SDS011;68178;52.188;5.598;2023-04-07T11:53:52;9.90;;;3.72;;
19137;SDS011;68178;52.188;5.598;2023-04-07T11:56:19;8.40;;;3.60;;
19137;SDS011;68178;52.188;5.598;2023-04-07T11:58:54;15.27;;;4.05;;
19137;SDS011;68178;52.188;5.598;2023-04-07T12:01:20;11.07;;;4.03;;
19137;SDS011;68178;52.188;5.598;2023-04-07T12:03:55;6.82;;;3.88;;
19137;SDS011;68178;52.188;5.598;2023-04-07T12:06:28;9.57;;;4.22;;
19137;SDS011;68178;52.188;5.598;2023-04-07T12:08:55;8.95;;;3.20;;
19137;SDS011;68178;52.188;5.598;2023-04-07T12:11:20;5.22;;;3.40;;
19137;SDS011;68178;52.188;5.598;2023-04-07T12:13:46;5.95;;;3.70;;
19137;SDS011;68178;52.188;5.598;2023-04-07T12:16:12;8.10;;;3.83;;
19137;SDS011;68178;52.188;5.598;2023-04-07T12:18:37;11.77;;;4.35;;
19137;SDS011;68178;52.188;5.598;2023-04-07T12:21:03;6.97;;;3.92;;
19137;SDS011;68178;52.188;5.598;2023-04-07T12:23:28;6.50;;;3.50;;
19137;SDS011;68178;52.188;5.598;2023-04-07T12:25:54;7.47;;;3.35;;
19137;SDS011;68178;52.188;5.598;2023-04-07T12:28:20;8.18;;;3.47;;
19137;SDS011;68178;52.188;5.598;2023-04-07T12:30:45;8.80;;;4.35;;
19137;SDS011;68178;52.188;5.598;2023-04-07T12:33:11;7.63;;;3.95;;
19137;SDS011;68178;52.188;5.598;2023-04-07T12:35:36;7.95;;;3.28;;
19137;SDS011;68178;52.188;5.598;2023-04-07T12:38:03;10.07;;;3.22;;
19137;SDS011;68178;52.188;5.598;2023-04-07T12:40:29;5.70;;;2.45;;
19137;SDS011;68178;52.188;5.598;2023-04-07T12:42:55;6.07;;;2.72;;
19137;SDS011;68178;52.188;5.598;2023-04-07T12:45:22;7.97;;;2.78;;
19137;SDS011;68178;52.188;5.598;2023-04-07T12:47:48;7.75;;;2.40;;
19137;SDS011;68178;52.188;5.598;2023-04-07T12:50:13;7.68;;;2.75;;
19137;SDS011;68178;52.188;5.598;2023-04-07T12:52:40;5.57;;;2.17;;
19137;SDS011;68178;52.188;5.598;2023-04-07T12:55:05;6.57;;;2.50;;
19137;SDS011;68178;52.188;5.598;2023-04-07T12:57:31;4.55;;;1.95;;
19137;SDS011;68178;52.188;5.598;2023-04-07T12:59:57;5.28;;;2.30;;
19137;SDS011;68178;52.188;5.598;2023-04-07T13:02:23;8.77;;;2.08;;
19137;SDS011;68178;52.188;5.598;2023-04-07T13:04:48;7.18;;;2.35;;
19137;SDS011;68178;52.188;5.598;2023-04-07T13:07:14;6.75;;;2.33;;
19137;SDS011;68178;52.188;5.598;2023-04-07T13:09:40;5.28;;;2.83;;
19137;SDS011;68178;52.188;5.598;2023-04-07T13:12:08;5.18;;;2.42;;
19137;SDS011;68178;52.188;5.598;2023-04-07T13:14:35;5.10;;;2.22;;
19137;SDS011;68178;52.188;5.598;2023-04-07T13:17:01;4.15;;;2.40;;
19137;SDS011;68178;52.188;5.598;2023-04-07T13:19:26;3.47;;;2.13;;
19137;SDS011;68178;52.188;5.598;2023-04-07T13:21:52;5.03;;;2.22;;
19137;SDS011;68178;52.188;5.598;2023-04-07T13:24:17;6.20;;;2.45;;
19137;SDS011;68178;52.188;5.598;2023-04-07T13:26:45;2.85;;;2.10;;
19137;SDS011;68178;52.188;5.598;2023-04-07T13:29:10;6.65;;;2.67;;
19137;SDS011;68178;52.188;5.598;2023-04-07T13:31:37;6.95;;;2.40;;
19137;SDS011;68178;52.188;5.598;2023-04-07T13:34:03;5.15;;;2.20;;
19137;SDS011;68178;52.188;5.598;2023-04-07T13:36:28;5.25;;;2.80;;
19137;SDS011;68178;52.188;5.598;2023-04-07T13:38:54;5.15;;;2.97;;
19137;SDS011;68178;52.188;5.598;2023-04-07T13:41:20;8.52;;;3.08;;
19137;SDS011;68178;52.188;5.598;2023-04-07T13:43:47;6.13;;;3.00;;
19137;SDS011;68178;52.188;5.598;2023-04-07T13:46:13;6.88;;;3.15;;
19137;SDS011;68178;52.188;5.598;2023-04-07T13:48:43;5.22;;;3.00;;
19137;SDS011;68178;52.188;5.598;2023-04-07T13:51:09;6.45;;;3.88;;
19137;SDS011;68178;52.188;5.598;2023-04-07T13:53:35;6.15;;;3.47;;
19137;SDS011;68178;52.188;5.598;2023-04-07T13:56:00;3.90;;;3.38;;
19137;SDS011;68178;52.188;5.598;2023-04-07T13:58:27;8.38;;;4.53;;
19137;SDS011;68178;52.188;5.598;2023-04-07T14:00:53;6.22;;;4.10;;
19137;SDS011;68178;52.188;5.598;2023-04-07T14:03:20;9.10;;;3.80;;
19137;SDS011;68178;52.188;5.598;2023-04-07T14:05:46;10.30;;;3.72;;
19137;SDS011;68178;52.188;5.598;2023-04-07T14:08:12;6.22;;;3.33;;
19137;SDS011;68178;52.188;5.598;2023-04-07T14:10:38;9.30;;;3.42;;
19137;SDS011;68178;52.188;5.598;2023-04-07T14:13:04;8.18;;;3.83;;
19137;SDS011;68178;52.188;5.598;2023-04-07T14:15:30;9.05;;;4.47;;
19137;SDS011;68178;52.188;5.598;2023-04-07T14:17:57;3.85;;;2.78;;
19137;SDS011;68178;52.188;5.598;2023-04-07T14:20:24;5.55;;;3.25;;
19137;SDS011;68178;52.188;5.598;2023-04-07T14:22:50;7.28;;;3.30;;
19137;SDS011;68178;52.188;5.598;2023-04-07T14:25:16;3.88;;;2.67;;
19137;SDS011;68178;52.188;5.598;2023-04-07T14:27:41;7.25;;;3.30;;
19137;SDS011;68178;52.188;5.598;2023-04-07T14:30:07;3.42;;;2.58;;
19137;SDS011;68178;52.188;5.598;2023-04-07T14:32:33;7.47;;;3.00;;
19137;SDS011;68178;52.188;5.598;2023-04-07T14:35:02;5.97;;;3.35;;
19137;SDS011;68178;52.188;5.598;2023-04-07T14:37:28;4.60;;;3.70;;
19137;SDS011;68178;52.188;5.598;2023-04-07T14:39:53;9.23;;;3.33;;
19137;SDS011;68178;52.188;5.598;2023-04-07T14:42:19;7.63;;;3.83;;
19137;SDS011;68178;52.188;5.598;2023-04-07T14:44:45;8.20;;;3.97;;
19137;SDS011;68178;52.188;5.598;2023-04-07T14:47:11;9.43;;;4.60;;
19137;SDS011;68178;52.188;5.598;2023-04-07T14:49:37;8.05;;;4.32;;
19137;SDS011;68178;52.188;5.598;2023-04-07T14:52:02;4.78;;;3.70;;